Darstellungsparameter: Aktuell verwendete Einstellungen:
Skalierung der Graphiken ... ?
xyx+y,   Skalierungsfaktor:      Skalierung: Modus: x, Faktor: 1
Darstellungszeitraum ... ?
Vom - - bis: - -   Zeitraum: 03.06.2020 - 03.06.2020
Min/Max/Avg-Anzeige ... ?
Zeige MMA aktuell
Zeige MMA Monat
Zeige MMA alles
Zeige --A aktuell
Zeige --A Monat
Zeige --A alles
Keine MMA-Anzeige
MMA:
Average (ber die Originaldaten)
MMA-Basis: 03.06.2020 - 03.06.2020
Quicknavigation für Darstellung... ?
Tage:      1T, 2T, 3T, 5T -1T -2T -3T -5T +1T +2T +3T +5T
Wochen: 1W, 2W, 3W -1W -2W -3W +1W +2W +3W
Monate: 1M, 3M, 6M -1M -3M -6M +1M +3M +6M
Jahre:    1J, 3J, 5J, 10J -1J -3J -5J -10J +1J +3J +5J +10J
Nutze für die Darstellung ... ?
Originaldaten oder Mittelwerte auf ...
Stundenbasis Tagesbasis Wochenbasis
Monatsbasis Jahresbasis      Datenbasis: Original-Daten
Darstellen als:
Statistik (Auto) Statistik J:M      Darstellung:
Zur Graphik,    zurück zur Übersicht aller Sensoren.
 
Tabellarische Datenbersicht: ?
 
Sensor: Nr:Datum:Temp:Abs-Feuchte:Windchill:Wind:
Aussen-T/F 1 03-06-2020 00:00:00 17.2 C 9.67 g/m*3 17.2 C 0 km/h
2 03-06-2020 00:05:00 17.1 C 9.61 g/m*3 17.1 C 0 km/h
3 03-06-2020 00:10:00 16.9 C 9.35 g/m*3 16.9 C 0 km/h
4 03-06-2020 00:15:00 16.8 C 9.44 g/m*3 16.8 C 0 km/h
5 03-06-2020 00:20:00 16.6 C 9.32 g/m*3 16.6 C 0 km/h
6 03-06-2020 00:25:00 16.4 C 9.21 g/m*3 16.4 C 0 km/h
7 03-06-2020 00:30:00 16.3 C 9.3 g/m*3 16.3 C 0 km/h
8 03-06-2020 00:35:00 16.2 C 9.38 g/m*3 16.2 C 0 km/h
9 03-06-2020 00:40:00 16.1 C 9.32 g/m*3 16.1 C 0 km/h
10 03-06-2020 00:45:00 15.9 C 9.07 g/m*3 15.9 C 0 km/h
11 03-06-2020 00:50:00 15.8 C 9.29 g/m*3 15.8 C 0 km/h
12 03-06-2020 00:55:00 15.7 C 9.23 g/m*3 15.7 C 0 km/h
13 03-06-2020 01:00:00 15.6 C 9.31 g/m*3 15.6 C 0 km/h
14 03-06-2020 01:05:00 15.4 C 9.2 g/m*3 15.4 C 1.6 km/h
15 03-06-2020 01:10:00 15.3 C 9.14 g/m*3 15.3 C 1.6 km/h
16 03-06-2020 01:15:00 15.3 C 9.14 g/m*3 15.3 C 11.3 km/h
17 03-06-2020 01:20:00 15.5 C 9.52 g/m*3 15.5 C 3.2 km/h
18 03-06-2020 01:25:00 15.6 C 9.58 g/m*3 15.6 C 0 km/h
19 03-06-2020 01:30:00 15.7 C 9.63 g/m*3 15.7 C 0 km/h
20 03-06-2020 01:35:00 15.7 C 9.63 g/m*3 15.7 C 0 km/h
21 03-06-2020 01:40:00 15.7 C 9.77 g/m*3 15.7 C 3.2 km/h
22 03-06-2020 01:45:00 15.8 C 9.83 g/m*3 15.8 C 4.8 km/h
23 03-06-2020 01:50:00 15.9 C 9.89 g/m*3 15.9 C 3.2 km/h
24 03-06-2020 01:55:00 15.9 C 9.89 g/m*3 15.9 C 3.2 km/h
25 03-06-2020 02:00:00 15.9 C 9.89 g/m*3 15.9 C 0 km/h
Sensor: Nr:Datum:Temp:Abs-Feuchte:Windchill:Wind:
Aussen-T/F 26 03-06-2020 02:05:00 15.9 C 9.89 g/m*3 15.9 C 0 km/h
27 03-06-2020 02:10:00 15.9 C 9.89 g/m*3 15.9 C 4.8 km/h
28 03-06-2020 02:15:00 15.8 C 9.83 g/m*3 15.8 C 4.8 km/h
29 03-06-2020 02:20:00 15.8 C 9.83 g/m*3 15.8 C 1.6 km/h
30 03-06-2020 02:25:00 15.8 C 9.83 g/m*3 15.8 C 0 km/h
31 03-06-2020 02:30:00 15.7 C 9.9 g/m*3 15.7 C 0 km/h
32 03-06-2020 02:35:00 15.6 C 9.84 g/m*3 15.6 C 0 km/h
33 03-06-2020 02:40:00 15.4 C 9.72 g/m*3 15.4 C 0 km/h
34 03-06-2020 02:45:00 15.2 C 9.73 g/m*3 15.2 C 0 km/h
35 03-06-2020 02:50:00 15.1 C 9.8 g/m*3 15.1 C 0 km/h
36 03-06-2020 02:55:00 14.9 C 9.69 g/m*3 14.9 C 0 km/h
37 03-06-2020 03:00:00 14.8 C 9.75 g/m*3 14.8 C 0 km/h
38 03-06-2020 03:05:00 14.7 C 9.82 g/m*3 14.7 C 3.2 km/h
39 03-06-2020 03:10:00 14.7 C 9.82 g/m*3 14.7 C 0 km/h
40 03-06-2020 03:15:00 14.7 C 9.82 g/m*3 14.7 C 0 km/h
41 03-06-2020 03:20:00 14.7 C 9.82 g/m*3 14.7 C 0 km/h
42 03-06-2020 03:25:00 14.7 C 9.82 g/m*3 14.7 C 0 km/h
43 03-06-2020 03:30:00 14.6 C 9.76 g/m*3 14.6 C 0 km/h
44 03-06-2020 03:35:00 14.6 C 9.89 g/m*3 14.6 C 0 km/h
45 03-06-2020 03:40:00 14.6 C 9.89 g/m*3 14.6 C 0 km/h
46 03-06-2020 03:45:00 14.5 C 9.83 g/m*3 14.5 C 0 km/h
47 03-06-2020 03:50:00 14.4 C 9.77 g/m*3 14.4 C 0 km/h
48 03-06-2020 03:55:00 14.3 C 9.71 g/m*3 14.3 C 0 km/h
49 03-06-2020 04:00:00 14.2 C 9.77 g/m*3 14.2 C 0 km/h
50 03-06-2020 04:05:00 14.2 C 9.77 g/m*3 14.2 C 0 km/h
Sensor: Nr:Datum:Temp:Abs-Feuchte:Windchill:Wind:
Aussen-T/F 51 03-06-2020 04:10:00 14.1 C 9.71 g/m*3 14.1 C 0 km/h
52 03-06-2020 04:15:00 14.1 C 9.83 g/m*3 14.1 C 0 km/h
53 03-06-2020 04:20:00 14 C 9.77 g/m*3 14 C 0 km/h
54 03-06-2020 04:25:00 14 C 9.77 g/m*3 14 C 0 km/h
55 03-06-2020 04:30:00 14 C 9.77 g/m*3 14 C 0 km/h
56 03-06-2020 04:35:00 14 C 9.77 g/m*3 14 C 0 km/h
57 03-06-2020 04:40:00 14 C 9.77 g/m*3 14 C 0 km/h
58 03-06-2020 04:45:00 14.1 C 9.95 g/m*3 14.1 C 0 km/h
59 03-06-2020 04:50:00 14.1 C 9.95 g/m*3 14.1 C 0 km/h
60 03-06-2020 04:55:00 14.1 C 9.95 g/m*3 14.1 C 0 km/h
61 03-06-2020 05:00:00 14.2 C 10.01 g/m*3 14.2 C 0 km/h
62 03-06-2020 05:05:00 14.2 C 10.01 g/m*3 14.2 C 0 km/h
63 03-06-2020 05:10:00 14.2 C 10.01 g/m*3 14.2 C 0 km/h
64 03-06-2020 05:15:00 14.1 C 9.95 g/m*3 14.1 C 0 km/h
65 03-06-2020 05:20:00 14.1 C 9.83 g/m*3 14.1 C 0 km/h
66 03-06-2020 05:25:00 14.1 C 9.83 g/m*3 14.1 C 0 km/h
67 03-06-2020 05:30:00 14 C 9.77 g/m*3 14 C 1.6 km/h
68 03-06-2020 05:35:00 13.9 C 9.83 g/m*3 13.9 C 0 km/h
69 03-06-2020 05:40:00 13.9 C 9.83 g/m*3 13.9 C 0 km/h
70 03-06-2020 05:45:00 13.8 C 9.65 g/m*3 13.8 C 0 km/h
71 03-06-2020 05:50:00 13.8 C 9.77 g/m*3 13.8 C 0 km/h
72 03-06-2020 05:55:00 13.7 C 9.71 g/m*3 13.7 C 0 km/h
73 03-06-2020 06:00:00 13.7 C 9.71 g/m*3 13.7 C 0 km/h
74 03-06-2020 06:05:00 13.7 C 9.83 g/m*3 13.7 C 0 km/h
75 03-06-2020 06:10:00 13.6 C 9.77 g/m*3 13.6 C 0 km/h
Sensor: Nr:Datum:Temp:Abs-Feuchte:Windchill:Wind:
Aussen-T/F 76 03-06-2020 06:15:00 13.6 C 9.77 g/m*3 13.6 C 0 km/h
77 03-06-2020 06:20:00 13.6 C 9.89 g/m*3 13.6 C 0 km/h
78 03-06-2020 06:25:00 13.6 C 9.89 g/m*3 13.6 C 0 km/h
79 03-06-2020 06:30:00 13.6 C 9.89 g/m*3 13.6 C 0 km/h
80 03-06-2020 06:35:00 13.6 C 9.89 g/m*3 13.6 C 0 km/h
81 03-06-2020 06:40:00 13.7 C 9.95 g/m*3 13.7 C 0 km/h
82 03-06-2020 06:45:00 13.7 C 9.95 g/m*3 13.7 C 0 km/h
83 03-06-2020 06:50:00 13.7 C 10.07 g/m*3 13.7 C 0 km/h
84 03-06-2020 06:55:00 13.7 C 10.07 g/m*3 13.7 C 0 km/h
85 03-06-2020 07:00:00 13.8 C 10.25 g/m*3 13.8 C 0 km/h
86 03-06-2020 07:05:00 13.8 C 10.13 g/m*3 13.8 C 0 km/h
87 03-06-2020 07:10:00 13.9 C 10.31 g/m*3 13.9 C 0 km/h
88 03-06-2020 07:15:00 14 C 10.37 g/m*3 14 C 0 km/h
89 03-06-2020 07:20:00 14.1 C 10.44 g/m*3 14.1 C 0 km/h
90 03-06-2020 07:25:00 14.1 C 10.44 g/m*3 14.1 C 0 km/h
91 03-06-2020 07:30:00 14.2 C 10.5 g/m*3 14.2 C 0 km/h
92 03-06-2020 07:35:00 14.2 C 10.5 g/m*3 14.2 C 0 km/h
93 03-06-2020 07:40:00 14.3 C 10.57 g/m*3 14.3 C 0 km/h
94 03-06-2020 07:45:00 14.5 C 10.7 g/m*3 14.5 C 0 km/h
95 03-06-2020 07:50:00 14.7 C 10.95 g/m*3 14.7 C 0 km/h
96 03-06-2020 07:55:00 14.9 C 11.09 g/m*3 14.9 C 0 km/h
97 03-06-2020 08:00:00 15.1 C 11.09 g/m*3 15.1 C 0 km/h
98 03-06-2020 08:05:00 15.2 C 11.03 g/m*3 15.2 C 0 km/h
99 03-06-2020 08:10:00 15.3 C 11.1 g/m*3 15.3 C 0 km/h
100 03-06-2020 08:15:00 15.4 C 11.17 g/m*3 15.4 C 0 km/h
Sensor: Nr:Datum:Temp:Abs-Feuchte:Windchill:Wind:
Aussen-T/F 101 03-06-2020 08:20:00 15.5 C 11.24 g/m*3 15.5 C 0 km/h
102 03-06-2020 08:25:00 15.6 C 11.3 g/m*3 15.6 C 0 km/h
103 03-06-2020 08:30:00 15.7 C 11.11 g/m*3 15.7 C 1.6 km/h
104 03-06-2020 08:35:00 15.9 C 11.38 g/m*3 15.9 C 0 km/h
105 03-06-2020 08:40:00 16.1 C 11.38 g/m*3 16.1 C 0 km/h
106 03-06-2020 08:45:00 16.3 C 11.24 g/m*3 16.3 C 0 km/h
107 03-06-2020 08:50:00 16.6 C 11.44 g/m*3 16.6 C 1.6 km/h
108 03-06-2020 08:55:00 16.8 C 11.58 g/m*3 16.8 C 0 km/h
109 03-06-2020 09:00:00 16.9 C 11.08 g/m*3 16.9 C 0 km/h
110 03-06-2020 09:05:00 17.2 C 10.69 g/m*3 17.2 C 3.2 km/h
111 03-06-2020 09:10:00 17.4 C 10.82 g/m*3 17.4 C 1.6 km/h
112 03-06-2020 09:15:00 17.8 C 11.54 g/m*3 17.8 C 1.6 km/h
113 03-06-2020 09:20:00 18 C 11.67 g/m*3 18 C 0 km/h
114 03-06-2020 09:25:00 18.2 C 11.35 g/m*3 18.2 C 0 km/h
115 03-06-2020 09:30:00 18.3 C 11.1 g/m*3 18.3 C 0 km/h
116 03-06-2020 09:35:00 18.5 C 10.6 g/m*3 18.5 C 1.6 km/h
117 03-06-2020 09:40:00 18.7 C 11.05 g/m*3 18.7 C 0 km/h
118 03-06-2020 09:45:00 18.9 C 11.18 g/m*3 18.9 C 1.6 km/h
119 03-06-2020 09:50:00 19.1 C 11.31 g/m*3 19.1 C 1.6 km/h
120 03-06-2020 09:55:00 19.2 C 11.38 g/m*3 19.2 C 0 km/h
121 03-06-2020 10:00:00 19.2 C 11.38 g/m*3 19.2 C 0 km/h
122 03-06-2020 10:05:00 19.3 C 10.95 g/m*3 19.3 C 0 km/h
123 03-06-2020 10:10:00 19.4 C 10.68 g/m*3 19.4 C 1.6 km/h
124 03-06-2020 10:15:00 19.7 C 11.21 g/m*3 19.7 C 1.6 km/h
125 03-06-2020 10:20:00 20 C 10.71 g/m*3 20 C 1.6 km/h
Sensor: Nr:Datum:Temp:Abs-Feuchte:Windchill:Wind:
Aussen-T/F 126 03-06-2020 10:25:00 20.5 C 10.68 g/m*3 20.5 C 1.6 km/h
127 03-06-2020 10:30:00 20.9 C 10.75 g/m*3 20.9 C 4.8 km/h
128 03-06-2020 10:35:00 21.3 C 10.62 g/m*3 21.3 C 4.8 km/h
129 03-06-2020 10:40:00 21.7 C 10.68 g/m*3 21.7 C 3.2 km/h
130 03-06-2020 10:45:00 22 C 10.29 g/m*3 22 C 1.6 km/h
131 03-06-2020 10:50:00 22.3 C 10.27 g/m*3 22.3 C 4.8 km/h
132 03-06-2020 10:55:00 22.4 C 10.13 g/m*3 22.4 C 6.4 km/h
133 03-06-2020 11:00:00 22.6 C 9.84 g/m*3 22.6 C 1.6 km/h
134 03-06-2020 11:05:00 22.7 C 9.9 g/m*3 22.7 C 3.2 km/h
135 03-06-2020 11:10:00 22.8 C 9.55 g/m*3 22.8 C 3.2 km/h
136 03-06-2020 11:15:00 22.8 C 9.75 g/m*3 22.8 C 6.4 km/h
137 03-06-2020 11:20:00 22.9 C 9.81 g/m*3 22.9 C 3.2 km/h
138 03-06-2020 11:25:00 23.1 C 9.51 g/m*3 23.1 C 8.1 km/h
139 03-06-2020 11:30:00 23.2 C 9.56 g/m*3 23.2 C 6.4 km/h
140 03-06-2020 11:35:00 23.3 C 9.83 g/m*3 23.3 C 8.1 km/h
141 03-06-2020 11:40:00 23.4 C 10.09 g/m*3 23.4 C 3.2 km/h
142 03-06-2020 11:45:00 23.6 C 9.36 g/m*3 23.6 C 6.4 km/h
143 03-06-2020 11:50:00 23.7 C 9.63 g/m*3 23.7 C 9.7 km/h
144 03-06-2020 11:55:00 23.8 C 9.68 g/m*3 23.8 C 6.4 km/h
145 03-06-2020 12:00:00 23.8 C 9.46 g/m*3 23.8 C 6.4 km/h
146 03-06-2020 12:05:00 23.9 C 9.3 g/m*3 23.9 C 9.7 km/h
147 03-06-2020 12:10:00 23.9 C 9.3 g/m*3 23.9 C 3.2 km/h
148 03-06-2020 12:15:00 24 C 9.36 g/m*3 24 C 3.2 km/h
149 03-06-2020 12:20:00 24.1 C 9.63 g/m*3 24.1 C 4.8 km/h
150 03-06-2020 12:25:00 24.1 C 9.63 g/m*3 24.1 C 9.7 km/h
Sensor: Nr:Datum:Temp:Abs-Feuchte:Windchill:Wind:
Aussen-T/F 151 03-06-2020 12:30:00 24.2 C 9.68 g/m*3 24.2 C 6.4 km/h
152 03-06-2020 12:35:00 24.2 C 9.46 g/m*3 24.2 C 6.4 km/h
153 03-06-2020 12:40:00 24.4 C 9.57 g/m*3 24.4 C 9.7 km/h
154 03-06-2020 12:45:00 24.6 C 9.68 g/m*3 24.6 C 11.3 km/h
155 03-06-2020 12:50:00 24.6 C 9.68 g/m*3 24.6 C 6.4 km/h
156 03-06-2020 12:55:00 24.8 C 9.33 g/m*3 24.8 C 8.1 km/h
157 03-06-2020 13:00:00 24.9 C 9.39 g/m*3 24.9 C 8.1 km/h
158 03-06-2020 13:05:00 25 C 9.44 g/m*3 25 C 9.7 km/h
159 03-06-2020 13:10:00 25.2 C 9.54 g/m*3 25.2 C 12.9 km/h
160 03-06-2020 13:15:00 25.3 C 9.36 g/m*3 25.3 C 8.1 km/h
161 03-06-2020 13:20:00 25.4 C 9.42 g/m*3 25.4 C 8.1 km/h
162 03-06-2020 13:25:00 25.7 C 9.58 g/m*3 25.7 C 9.7 km/h
163 03-06-2020 13:30:00 25.8 C 9.63 g/m*3 25.8 C 8.1 km/h
164 03-06-2020 13:35:00 25.7 C 9.34 g/m*3 25.7 C 11.3 km/h
165 03-06-2020 13:40:00 25.6 C 9.05 g/m*3 25.6 C 8.1 km/h
166 03-06-2020 13:45:00 25.4 C 9.18 g/m*3 25.4 C 9.7 km/h
167 03-06-2020 13:50:00 25.3 C 9.6 g/m*3 25.3 C 8.1 km/h
168 03-06-2020 13:55:00 25.3 C 9.36 g/m*3 25.3 C 8.1 km/h
169 03-06-2020 14:00:00 25.2 C 9.31 g/m*3 25.2 C 8.1 km/h
170 03-06-2020 14:05:00 25 C 9.44 g/m*3 25 C 9.7 km/h
171 03-06-2020 14:10:00 24.8 C 9.56 g/m*3 24.8 C 25.7 km/h
172 03-06-2020 14:15:00 24.4 C 9.79 g/m*3 24.4 C 19.3 km/h
173 03-06-2020 14:20:00 23.8 C 9.03 g/m*3 23.8 C 22.5 km/h
174 03-06-2020 14:25:00 23.3 C 9.2 g/m*3 23.3 C 14.5 km/h
175 03-06-2020 14:30:00 23 C 8.84 g/m*3 23 C 8.1 km/h
Sensor: Nr:Datum:Temp:Abs-Feuchte:Windchill:Wind:
Aussen-T/F 176 03-06-2020 14:35:00 22.9 C 8.79 g/m*3 22.9 C 12.9 km/h
177 03-06-2020 14:40:00 22.8 C 9.14 g/m*3 22.8 C 12.9 km/h
178 03-06-2020 14:45:00 22.5 C 9.59 g/m*3 22.5 C 8.1 km/h
179 03-06-2020 14:50:00 22.4 C 9.93 g/m*3 22.4 C 3.2 km/h
180 03-06-2020 14:55:00 22.4 C 10.33 g/m*3 22.4 C 3.2 km/h
181 03-06-2020 15:00:00 22.6 C 10.04 g/m*3 22.6 C 9.7 km/h
182 03-06-2020 15:05:00 22.9 C 10.83 g/m*3 22.9 C 3.2 km/h
183 03-06-2020 15:10:00 23.9 C 9.95 g/m*3 23.9 C 6.4 km/h
184 03-06-2020 15:15:00 24.3 C 9.96 g/m*3 24.3 C 4.8 km/h
185 03-06-2020 15:20:00 24.5 C 9.4 g/m*3 24.5 C 12.9 km/h
186 03-06-2020 15:25:00 24.6 C 9.23 g/m*3 24.6 C 8.1 km/h
187 03-06-2020 15:30:00 24.4 C 9.57 g/m*3 24.4 C 6.4 km/h
188 03-06-2020 15:35:00 24.4 C 9.57 g/m*3 24.4 C 3.2 km/h
189 03-06-2020 15:40:00 24.2 C 9.24 g/m*3 24.2 C 9.7 km/h
190 03-06-2020 15:45:00 24.2 C 9.24 g/m*3 24.2 C 8.1 km/h
191 03-06-2020 15:50:00 24.4 C 9.57 g/m*3 24.4 C 6.4 km/h
192 03-06-2020 15:55:00 25.1 C 9.49 g/m*3 25.1 C 8.1 km/h
193 03-06-2020 16:00:00 25.7 C 9.34 g/m*3 25.7 C 9.7 km/h
194 03-06-2020 16:05:00 25.9 C 9.2 g/m*3 25.9 C 8.1 km/h
195 03-06-2020 16:10:00 26.2 C 9.35 g/m*3 26.2 C 6.4 km/h
196 03-06-2020 16:15:00 26.4 C 9.21 g/m*3 26.4 C 6.4 km/h
197 03-06-2020 16:20:00 26.6 C 8.81 g/m*3 26.6 C 4.8 km/h
198 03-06-2020 16:25:00 26.8 C 9.16 g/m*3 26.8 C 6.4 km/h
199 03-06-2020 16:30:00 27 C 9.26 g/m*3 27 C 8.1 km/h
200 03-06-2020 16:35:00 27 C 9.52 g/m*3 27 C 6.4 km/h
Sensor: Nr:Datum:Temp:Abs-Feuchte:Windchill:Wind:
Aussen-T/F 201 03-06-2020 16:40:00 27.1 C 9.32 g/m*3 27.1 C 6.4 km/h
202 03-06-2020 16:45:00 27.3 C 9.16 g/m*3 27.3 C 6.4 km/h
203 03-06-2020 16:50:00 27.1 C 9.06 g/m*3 27.1 C 11.3 km/h
204 03-06-2020 16:55:00 26.9 C 9.21 g/m*3 26.9 C 4.8 km/h
205 03-06-2020 17:00:00 26.9 C 9.47 g/m*3 26.9 C 8.1 km/h
206 03-06-2020 17:05:00 26.9 C 9.47 g/m*3 26.9 C 3.2 km/h
207 03-06-2020 17:10:00 27.1 C 9.58 g/m*3 27.1 C 8.1 km/h
208 03-06-2020 17:15:00 26.9 C 9.47 g/m*3 26.9 C 9.7 km/h
209 03-06-2020 17:20:00 27.1 C 9.32 g/m*3 27.1 C 8.1 km/h
210 03-06-2020 17:25:00 27.1 C 9.32 g/m*3 27.1 C 8.1 km/h
211 03-06-2020 17:30:00 27.1 C 9.58 g/m*3 27.1 C 6.4 km/h
212 03-06-2020 17:35:00 27.3 C 9.68 g/m*3 27.3 C 4.8 km/h
213 03-06-2020 17:40:00 26.9 C 9.47 g/m*3 26.9 C 9.7 km/h
214 03-06-2020 17:45:00 26.5 C 9.76 g/m*3 26.5 C 3.2 km/h
215 03-06-2020 17:50:00 26.3 C 9.65 g/m*3 26.3 C 3.2 km/h
216 03-06-2020 17:55:00 26.1 C 9.55 g/m*3 26.1 C 6.4 km/h
217 03-06-2020 18:00:00 25.8 C 9.87 g/m*3 25.8 C 4.8 km/h
218 03-06-2020 18:05:00 25.7 C 9.58 g/m*3 25.7 C 3.2 km/h
219 03-06-2020 18:10:00 25.7 C 9.58 g/m*3 25.7 C 6.4 km/h
220 03-06-2020 18:15:00 25.6 C 9.76 g/m*3 25.6 C 3.2 km/h
221 03-06-2020 18:20:00 25.4 C 9.65 g/m*3 25.4 C 4.8 km/h
222 03-06-2020 18:25:00 25.3 C 9.83 g/m*3 25.3 C 0 km/h
223 03-06-2020 18:30:00 25.3 C 9.6 g/m*3 25.3 C 4.8 km/h
224 03-06-2020 18:35:00 25.2 C 9.54 g/m*3 25.2 C 6.4 km/h
225 03-06-2020 18:40:00 25 C 9.21 g/m*3 25 C 8.1 km/h
Sensor: Nr:Datum:Temp:Abs-Feuchte:Windchill:Wind:
Aussen-T/F 226 03-06-2020 18:45:00 24.9 C 9.39 g/m*3 24.9 C 6.4 km/h
227 03-06-2020 18:50:00 24.9 C 9.39 g/m*3 24.9 C 4.8 km/h
228 03-06-2020 18:55:00 25.1 C 9.49 g/m*3 25.1 C 4.8 km/h
229 03-06-2020 19:00:00 25.3 C 9.6 g/m*3 25.3 C 3.2 km/h
230 03-06-2020 19:05:00 25.3 C 10.07 g/m*3 25.3 C 3.2 km/h
231 03-06-2020 19:10:00 25.4 C 9.89 g/m*3 25.4 C 8.1 km/h
232 03-06-2020 19:15:00 25.5 C 9.71 g/m*3 25.5 C 4.8 km/h
233 03-06-2020 19:20:00 25.8 C 9.87 g/m*3 25.8 C 3.2 km/h
234 03-06-2020 19:25:00 25.8 C 9.63 g/m*3 25.8 C 6.4 km/h
235 03-06-2020 19:30:00 25.8 C 9.87 g/m*3 25.8 C 4.8 km/h
236 03-06-2020 19:35:00 25.8 C 10.35 g/m*3 25.8 C 1.6 km/h
237 03-06-2020 19:40:00 25.8 C 11.32 g/m*3 25.8 C 0 km/h
238 03-06-2020 19:45:00 25.7 C 11.25 g/m*3 25.7 C 1.6 km/h
239 03-06-2020 19:50:00 25.3 C 9.6 g/m*3 25.3 C 1.6 km/h
240 03-06-2020 19:55:00 25.1 C 9.72 g/m*3 25.1 C 6.4 km/h
241 03-06-2020 20:00:00 25.1 C 9.72 g/m*3 25.1 C 4.8 km/h
242 03-06-2020 20:05:00 24.9 C 9.61 g/m*3 24.9 C 3.2 km/h
243 03-06-2020 20:10:00 24.8 C 9.79 g/m*3 24.8 C 3.2 km/h
244 03-06-2020 20:15:00 24.7 C 9.73 g/m*3 24.7 C 4.8 km/h
245 03-06-2020 20:20:00 24.6 C 9.45 g/m*3 24.6 C 4.8 km/h
246 03-06-2020 20:25:00 24.3 C 9.52 g/m*3 24.3 C 6.4 km/h
247 03-06-2020 20:30:00 24.2 C 9.46 g/m*3 24.2 C 3.2 km/h
248 03-06-2020 20:35:00 24.1 C 9.63 g/m*3 24.1 C 1.6 km/h
249 03-06-2020 20:40:00 24.1 C 10.06 g/m*3 24.1 C 3.2 km/h
250 03-06-2020 20:45:00 24 C 10.66 g/m*3 24 C 1.6 km/h
Sensor: Nr:Datum:Temp:Abs-Feuchte:Windchill:Wind:
Aussen-T/F 251 03-06-2020 20:50:00 23.8 C 10.76 g/m*3 23.8 C 1.6 km/h
252 03-06-2020 20:55:00 23.6 C 10 g/m*3 23.6 C 3.2 km/h
253 03-06-2020 21:00:00 23.4 C 10.51 g/m*3 23.4 C 1.6 km/h
254 03-06-2020 21:05:00 23.1 C 10.54 g/m*3 23.1 C 3.2 km/h
255 03-06-2020 21:10:00 22.5 C 10.59 g/m*3 22.5 C 3.2 km/h
256 03-06-2020 21:15:00 22 C 10.48 g/m*3 22 C 4.8 km/h
257 03-06-2020 21:20:00 21.6 C 10.43 g/m*3 21.6 C 4.8 km/h
258 03-06-2020 21:25:00 21.1 C 10.32 g/m*3 21.1 C 1.6 km/h
259 03-06-2020 21:30:00 20.7 C 10.26 g/m*3 20.7 C 4.8 km/h
260 03-06-2020 21:35:00 20.4 C 10.26 g/m*3 20.4 C 4.8 km/h
261 03-06-2020 21:40:00 20.1 C 10.08 g/m*3 20.1 C 4.8 km/h
262 03-06-2020 21:45:00 19.8 C 10.08 g/m*3 19.8 C 6.4 km/h
263 03-06-2020 21:50:00 19.6 C 10.13 g/m*3 19.6 C 6.4 km/h
264 03-06-2020 21:55:00 19.4 C 10.01 g/m*3 19.4 C 6.4 km/h
265 03-06-2020 22:00:00 19.4 C 10.01 g/m*3 19.4 C 6.4 km/h
266 03-06-2020 22:05:00 19.3 C 10.12 g/m*3 19.3 C 8.1 km/h
267 03-06-2020 22:10:00 19.2 C 10.06 g/m*3 19.2 C 6.4 km/h
268 03-06-2020 22:15:00 19.2 C 10.06 g/m*3 19.2 C 6.4 km/h
269 03-06-2020 22:20:00 19.1 C 10.16 g/m*3 19.1 C 6.4 km/h
270 03-06-2020 22:25:00 19.1 C 10.16 g/m*3 19.1 C 4.8 km/h
271 03-06-2020 22:30:00 18.9 C 10.21 g/m*3 18.9 C 4.8 km/h
272 03-06-2020 22:35:00 18.8 C 10.31 g/m*3 18.8 C 1.6 km/h
273 03-06-2020 22:40:00 18.7 C 10.41 g/m*3 18.7 C 3.2 km/h
274 03-06-2020 22:45:00 18.4 C 10.22 g/m*3 18.4 C 1.6 km/h
275 03-06-2020 22:50:00 18.3 C 10.16 g/m*3 18.3 C 1.6 km/h
Sensor: Nr:Datum:Temp:Abs-Feuchte:Windchill:Wind:
Aussen-T/F 276 03-06-2020 22:55:00 18.1 C 10.35 g/m*3 18.1 C 0 km/h
277 03-06-2020 23:00:00 17.8 C 10.17 g/m*3 17.8 C 0 km/h
278 03-06-2020 23:05:00 17.6 C 10.2 g/m*3 17.6 C 3.2 km/h
279 03-06-2020 23:10:00 17.4 C 10.23 g/m*3 17.4 C 3.2 km/h
280 03-06-2020 23:15:00 17.3 C 10.16 g/m*3 17.3 C 3.2 km/h
281 03-06-2020 23:20:00 17.1 C 10.04 g/m*3 17.1 C 0 km/h
282 03-06-2020 23:25:00 17 C 10.13 g/m*3 17 C 3.2 km/h
283 03-06-2020 23:30:00 16.9 C 10.07 g/m*3 16.9 C 3.2 km/h
284 03-06-2020 23:35:00 16.9 C 10.36 g/m*3 16.9 C 1.6 km/h
285 03-06-2020 23:40:00 16.9 C 10.36 g/m*3 16.9 C 3.2 km/h
286 03-06-2020 23:45:00 16.9 C 10.21 g/m*3 16.9 C 4.8 km/h
287 03-06-2020 23:50:00 17 C 10.42 g/m*3 17 C 1.6 km/h
288 03-06-2020 23:55:00 17.1 C 10.92 g/m*3 17.1 C 1.6 km/h

Legende:
   Min
   Max


Maximal/Minimal-Werte vom 03.06.2020 - 03.06.2020

Sensor Min Max Avg
Temp
(Aussen-T/F)
13.6 °C
03-06-2020  06:10:00
27.3 °C
03-06-2020  16:45:00
19.97 °C
Abs-Feuchte
(Aussen-T/F)
8.79 g/m*3
03-06-2020  14:35:00
11.67 g/m*3
03-06-2020  09:20:00
9.9 g/m*3
Windchill
(Aussen-T/F)
13.6 C
03-06-2020  06:10:00
27.3 C
03-06-2020  16:45:00
19.9 C

Die Daten stammen von einer Davis Vantage Pro 2 Wetter-Station und werden unter Linux mit der Software wview2wettercgi und aufbereitet. Alle Angaben erfolgen ohne Gewähr für ihre Vollständigkeit oder Richtigkeit.
Kontakt: Rainer Krienke krienke@uni-koblenz.de . Meine Webseiten an der Uni Koblenz oder privat.
Version: $Revision: 0.78 $